sensor_id;sensor_type;location;lat;lon;timestamp;temperature;humidity
69009;SHT31;56065;52.472;13.380;2023-04-30T00:01:52;9.78;70.42
69009;SHT31;56065;52.472;13.380;2023-04-30T00:04:17;9.73;70.67
69009;SHT31;56065;52.472;13.380;2023-04-30T00:06:42;9.72;70.37
69009;SHT31;56065;52.472;13.380;2023-04-30T00:09:08;9.68;70.75
69009;SHT31;56065;52.472;13.380;2023-04-30T00:11:33;9.61;71.37
69009;SHT31;56065;52.472;13.380;2023-04-30T00:13:58;9.66;71.11
69009;SHT31;56065;52.472;13.380;2023-04-30T00:16:24;9.56;71.35
69009;SHT31;56065;52.472;13.380;2023-04-30T00:18:49;9.53;71.08
69009;SHT31;56065;52.472;13.380;2023-04-30T00:21:15;9.51;70.79
69009;SHT31;56065;52.472;13.380;2023-04-30T00:23:40;9.48;70.98
69009;SHT31;56065;52.472;13.380;2023-04-30T00:26:06;9.48;70.97
69009;SHT31;56065;52.472;13.380;2023-04-30T00:28:31;9.42;71.10
69009;SHT31;56065;52.472;13.380;2023-04-30T00:30:56;9.38;70.82
69009;SHT31;56065;52.472;13.380;2023-04-30T00:33:22;9.36;71.00
69009;SHT31;56065;52.472;13.380;2023-04-30T00:35:47;9.39;71.14
69009;SHT31;56065;52.472;13.380;2023-04-30T00:38:12;9.30;71.09
69009;SHT31;56065;52.472;13.380;2023-04-30T00:40:39;9.25;71.70
69009;SHT31;56065;52.472;13.380;2023-04-30T00:43:05;9.24;71.24
69009;SHT31;56065;52.472;13.380;2023-04-30T00:45:31;9.20;71.74
69009;SHT31;56065;52.472;13.380;2023-04-30T00:47:56;9.24;71.24
69009;SHT31;56065;52.472;13.380;2023-04-30T00:50:22;9.21;71.17
69009;SHT31;56065;52.472;13.380;2023-04-30T00:52:48;9.10;71.74
69009;SHT31;56065;52.472;13.380;2023-04-30T00:55:13;9.14;71.46
69009;SHT31;56065;52.472;13.380;2023-04-30T00:57:39;9.08;72.73
69009;SHT31;56065;52.472;13.380;2023-04-30T01:00:06;9.07;72.08
69009;SHT31;56065;52.472;13.380;2023-04-30T01:02:39;9.03;72.17
69009;SHT31;56065;52.472;13.380;2023-04-30T01:05:05;9.00;72.61
69009;SHT31;56065;52.472;13.380;2023-04-30T01:07:32;8.96;72.32
69009;SHT31;56065;52.472;13.380;2023-04-30T01:09:59;8.87;73.43
69009;SHT31;56065;52.472;13.380;2023-04-30T01:12:36;8.85;73.31
69009;SHT31;56065;52.472;13.380;2023-04-30T01:17:45;8.79;74.17
69009;SHT31;56065;52.472;13.380;2023-04-30T01:20:12;8.80;73.62
69009;SHT31;56065;52.472;13.380;2023-04-30T01:23:01;8.74;74.07
69009;SHT31;56065;52.472;13.380;2023-04-30T01:25:46;8.74;73.88
69009;SHT31;56065;52.472;13.380;2023-04-30T01:28:17;8.73;73.78
69009;SHT31;56065;52.472;13.380;2023-04-30T01:30:44;8.67;73.53
69009;SHT31;56065;52.472;13.380;2023-04-30T01:33:11;8.63;74.17
69009;SHT31;56065;52.472;13.380;2023-04-30T01:35:39;8.59;74.56
69009;SHT31;56065;52.472;13.380;2023-04-30T01:40:58;8.52;74.63
69009;SHT31;56065;52.472;13.380;2023-04-30T01:43:32;8.48;75.16
69009;SHT31;56065;52.472;13.380;2023-04-30T01:46:18;8.48;75.17
69009;SHT31;56065;52.472;13.380;2023-04-30T01:51:42;8.46;75.09
69009;SHT31;56065;52.472;13.380;2023-04-30T01:54:37;8.46;75.25
69009;SHT31;56065;52.472;13.380;2023-04-30T01:57:05;8.43;75.05
69009;SHT31;56065;52.472;13.380;2023-04-30T01:59:34;8.41;75.47
69009;SHT31;56065;52.472;13.380;2023-04-30T02:02:00;8.38;75.52
69009;SHT31;56065;52.472;13.380;2023-04-30T02:04:25;8.33;75.43
69009;SHT31;56065;52.472;13.380;2023-04-30T02:06:50;8.32;75.73
69009;SHT31;56065;52.472;13.380;2023-04-30T02:09:16;8.29;75.66
69009;SHT31;56065;52.472;13.380;2023-04-30T02:11:41;8.29;75.78
69009;SHT31;56065;52.472;13.380;2023-04-30T02:14:07;8.31;75.73
69009;SHT31;56065;52.472;13.380;2023-04-30T02:16:32;8.25;76.01
69009;SHT31;56065;52.472;13.380;2023-04-30T02:18:57;8.28;75.87
69009;SHT31;56065;52.472;13.380;2023-04-30T02:21:22;8.26;75.93
69009;SHT31;56065;52.472;13.380;2023-04-30T02:23:48;8.20;76.23
69009;SHT31;56065;52.472;13.380;2023-04-30T02:26:13;8.18;76.38
69009;SHT31;56065;52.472;13.380;2023-04-30T02:28:39;8.22;76.10
69009;SHT31;56065;52.472;13.380;2023-04-30T02:31:04;8.20;75.96
69009;SHT31;56065;52.472;13.380;2023-04-30T02:33:30;8.18;75.87
69009;SHT31;56065;52.472;13.380;2023-04-30T02:35:58;8.13;76.22
69009;SHT31;56065;52.472;13.380;2023-04-30T02:38:23;8.13;76.06
69009;SHT31;56065;52.472;13.380;2023-04-30T02:40:48;8.11;76.12
69009;SHT31;56065;52.472;13.380;2023-04-30T02:43:14;8.08;76.26
69009;SHT31;56065;52.472;13.380;2023-04-30T02:45:39;8.11;76.24
69009;SHT31;56065;52.472;13.380;2023-04-30T02:48:05;8.08;75.90
69009;SHT31;56065;52.472;13.380;2023-04-30T02:50:30;8.02;76.89
69009;SHT31;56065;52.472;13.380;2023-04-30T02:52:56;7.95;76.56
69009;SHT31;56065;52.472;13.380;2023-04-30T02:55:21;7.95;76.74
69009;SHT31;56065;52.472;13.380;2023-04-30T02:57:47;7.97;76.49
69009;SHT31;56065;52.472;13.380;2023-04-30T03:00:12;7.98;76.42
69009;SHT31;56065;52.472;13.380;2023-04-30T03:02:38;7.97;76.33
69009;SHT31;56065;52.472;13.380;2023-04-30T03:05:03;7.92;76.59
69009;SHT31;56065;52.472;13.380;2023-04-30T03:07:29;7.90;76.67
69009;SHT31;56065;52.472;13.380;2023-04-30T03:09:54;7.85;76.78
69009;SHT31;56065;52.472;13.380;2023-04-30T03:12:20;7.87;76.81
69009;SHT31;56065;52.472;13.380;2023-04-30T03:14:45;7.84;76.91
69009;SHT31;56065;52.472;13.380;2023-04-30T03:17:11;7.84;76.62
69009;SHT31;56065;52.472;13.380;2023-04-30T03:19:36;7.81;76.64
69009;SHT31;56065;52.472;13.380;2023-04-30T03:22:01;7.80;76.55
69009;SHT31;56065;52.472;13.380;2023-04-30T03:24:27;7.78;76.83
69009;SHT31;56065;52.472;13.380;2023-04-30T03:26:52;7.78;76.76
69009;SHT31;56065;52.472;13.380;2023-04-30T03:29:17;7.69;77.16
69009;SHT31;56065;52.472;13.380;2023-04-30T03:31:43;7.70;76.95
69009;SHT31;56065;52.472;13.380;2023-04-30T03:34:08;7.69;76.87
69009;SHT31;56065;52.472;13.380;2023-04-30T03:36:34;7.67;77.00
69009;SHT31;56065;52.472;13.380;2023-04-30T03:39:00;7.64;77.03
69009;SHT31;56065;52.472;13.380;2023-04-30T03:41:25;7.54;77.66
69009;SHT31;56065;52.472;13.380;2023-04-30T03:43:50;7.60;77.21
69009;SHT31;56065;52.472;13.380;2023-04-30T03:46:16;7.60;77.08
69009;SHT31;56065;52.472;13.380;2023-04-30T03:48:41;7.56;77.66
69009;SHT31;56065;52.472;13.380;2023-04-30T03:51:06;7.56;77.44
69009;SHT31;56065;52.472;13.380;2023-04-30T03:53:33;7.50;77.86
69009;SHT31;56065;52.472;13.380;2023-04-30T03:55:58;7.53;77.33
69009;SHT31;56065;52.472;13.380;2023-04-30T03:58:24;7.54;77.35
69009;SHT31;56065;52.472;13.380;2023-04-30T04:00:49;7.54;77.62
69009;SHT31;56065;52.472;13.380;2023-04-30T04:03:15;7.51;77.51
69009;SHT31;56065;52.472;13.380;2023-04-30T04:05:40;7.54;77.58
69009;SHT31;56065;52.472;13.380;2023-04-30T04:08:06;7.51;77.76
69009;SHT31;56065;52.472;13.380;2023-04-30T04:10:33;7.53;77.53
69009;SHT31;56065;52.472;13.380;2023-04-30T04:12:59;7.61;77.10
69009;SHT31;56065;52.472;13.380;2023-04-30T04:15:24;7.64;77.50
69009;SHT31;56065;52.472;13.380;2023-04-30T04:17:49;7.64;77.19
69009;SHT31;56065;52.472;13.380;2023-04-30T04:20:15;7.64;77.29
69009;SHT31;56065;52.472;13.380;2023-04-30T04:22:41;7.67;77.11
69009;SHT31;56065;52.472;13.380;2023-04-30T04:25:07;7.67;76.71
69009;SHT31;56065;52.472;13.380;2023-04-30T04:27:32;7.66;77.20
69009;SHT31;56065;52.472;13.380;2023-04-30T04:29:58;7.60;77.08
69009;SHT31;56065;52.472;13.380;2023-04-30T04:32:23;7.63;76.89
69009;SHT31;56065;52.472;13.380;2023-04-30T04:34:48;7.69;76.92
69009;SHT31;56065;52.472;13.380;2023-04-30T04:37:14;7.73;76.77
69009;SHT31;56065;52.472;13.380;2023-04-30T04:39:41;7.80;76.43
69009;SHT31;56065;52.472;13.380;2023-04-30T04:42:06;7.80;76.64
69009;SHT31;56065;52.472;13.380;2023-04-30T04:44:32;7.84;76.31
69009;SHT31;56065;52.472;13.380;2023-04-30T04:46:57;7.85;76.40
69009;SHT31;56065;52.472;13.380;2023-04-30T04:49:23;7.88;76.26
69009;SHT31;56065;52.472;13.380;2023-04-30T04:51:48;7.92;76.23
69009;SHT31;56065;52.472;13.380;2023-04-30T04:54:14;7.97;76.21
69009;SHT31;56065;52.472;13.380;2023-04-30T04:56:39;7.98;76.12
69009;SHT31;56065;52.472;13.380;2023-04-30T04:59:04;8.05;75.94
69009;SHT31;56065;52.472;13.380;2023-04-30T05:01:30;8.08;75.99
69009;SHT31;56065;52.472;13.380;2023-04-30T05:03:55;8.08;75.75
69009;SHT31;56065;52.472;13.380;2023-04-30T05:06:21;8.13;75.60
69009;SHT31;56065;52.472;13.380;2023-04-30T05:08:46;8.18;75.37
69009;SHT31;56065;52.472;13.380;2023-04-30T05:11:11;8.22;75.43
69009;SHT31;56065;52.472;13.380;2023-04-30T05:13:37;8.26;75.46
69009;SHT31;56065;52.472;13.380;2023-04-30T05:16:02;8.29;75.27
69009;SHT31;56065;52.472;13.380;2023-04-30T05:18:28;8.39;75.11
69009;SHT31;56065;52.472;13.380;2023-04-30T05:20:53;8.42;74.96
69009;SHT31;56065;52.472;13.380;2023-04-30T05:23:18;8.49;74.80
69009;SHT31;56065;52.472;13.380;2023-04-30T05:25:44;8.56;74.79
69009;SHT31;56065;52.472;13.380;2023-04-30T05:28:09;8.56;74.54
69009;SHT31;56065;52.472;13.380;2023-04-30T05:30:35;8.62;74.45
69009;SHT31;56065;52.472;13.380;2023-04-30T05:33:00;8.77;74.56
69009;SHT31;56065;52.472;13.380;2023-04-30T05:35:26;8.85;74.44
69009;SHT31;56065;52.472;13.380;2023-04-30T05:37:51;8.97;74.22
69009;SHT31;56065;52.472;13.380;2023-04-30T05:40:17;9.07;73.98
69009;SHT31;56065;52.472;13.380;2023-04-30T05:42:42;9.13;73.81
69009;SHT31;56065;52.472;13.380;2023-04-30T05:45:09;9.27;73.56
69009;SHT31;56065;52.472;13.380;2023-04-30T05:47:34;9.38;73.41
69009;SHT31;56065;52.472;13.380;2023-04-30T05:50:00;9.69;72.99
69009;SHT31;56065;52.472;13.380;2023-04-30T05:52:25;10.03;72.36
69009;SHT31;56065;52.472;13.380;2023-04-30T05:54:50;10.47;72.23
69009;SHT31;56065;52.472;13.380;2023-04-30T05:57:16;10.94;70.00
69009;SHT31;56065;52.472;13.380;2023-04-30T05:59:41;11.71;69.24
69009;SHT31;56065;52.472;13.380;2023-04-30T06:02:07;12.52;66.41
69009;SHT31;56065;52.472;13.380;2023-04-30T06:04:32;13.27;64.77
69009;SHT31;56065;52.472;13.380;2023-04-30T06:06:58;14.19;63.20
69009;SHT31;56065;52.472;13.380;2023-04-30T06:09:23;15.15;60.65
69009;SHT31;56065;52.472;13.380;2023-04-30T06:11:48;16.21;59.19
69009;SHT31;56065;52.472;13.380;2023-04-30T06:14:17;17.36;56.58
69009;SHT31;56065;52.472;13.380;2023-04-30T06:16:43;18.08;53.65
69009;SHT31;56065;52.472;13.380;2023-04-30T06:19:09;18.93;52.43
69009;SHT31;56065;52.472;13.380;2023-04-30T06:21:35;19.63;51.27
69009;SHT31;56065;52.472;13.380;2023-04-30T06:24:00;20.44;50.74
69009;SHT31;56065;52.472;13.380;2023-04-30T06:26:26;21.37;49.72
69009;SHT31;56065;52.472;13.380;2023-04-30T06:28:51;21.95;47.73
69009;SHT31;56065;52.472;13.380;2023-04-30T06:31:17;22.41;46.97
69009;SHT31;56065;52.472;13.380;2023-04-30T06:33:42;23.08;45.15
69009;SHT31;56065;52.472;13.380;2023-04-30T06:36:07;23.34;44.59
69009;SHT31;56065;52.472;13.380;2023-04-30T06:38:33;23.69;44.33
69009;SHT31;56065;52.472;13.380;2023-04-30T06:40:58;24.05;44.08
69009;SHT31;56065;52.472;13.380;2023-04-30T06:43:23;24.74;43.44
69009;SHT31;56065;52.472;13.380;2023-04-30T06:45:49;25.28;42.44
69009;SHT31;56065;52.472;13.380;2023-04-30T06:48:14;25.86;41.89
69009;SHT31;56065;52.472;13.380;2023-04-30T06:50:39;25.62;41.45
69009;SHT31;56065;52.472;13.380;2023-04-30T06:53:10;26.17;41.61
69009;SHT31;56065;52.472;13.380;2023-04-30T06:55:35;26.48;40.41
69009;SHT31;56065;52.472;13.380;2023-04-30T06:58:01;26.82;39.27
69009;SHT31;56065;52.472;13.380;2023-04-30T07:00:26;27.30;39.45
69009;SHT31;56065;52.472;13.380;2023-04-30T07:02:52;27.73;38.86
69009;SHT31;56065;52.472;13.380;2023-04-30T07:05:17;28.12;37.81
69009;SHT31;56065;52.472;13.380;2023-04-30T07:07:43;28.08;37.29
69009;SHT31;56065;52.472;13.380;2023-04-30T07:10:08;28.39;36.58
69009;SHT31;56065;52.472;13.380;2023-04-30T07:12:34;28.70;36.66
69009;SHT31;56065;52.472;13.380;2023-04-30T07:14:59;29.21;36.25
69009;SHT31;56065;52.472;13.380;2023-04-30T07:17:25;29.65;35.91
69009;SHT31;56065;52.472;13.380;2023-04-30T07:19:50;29.86;34.78
69009;SHT31;56065;52.472;13.380;2023-04-30T07:22:16;29.03;34.64
69009;SHT31;56065;52.472;13.380;2023-04-30T07:24:41;29.35;35.21
69009;SHT31;56065;52.472;13.380;2023-04-30T07:27:06;29.72;34.83
69009;SHT31;56065;52.472;13.380;2023-04-30T07:29:32;29.71;33.89
69009;SHT31;56065;52.472;13.380;2023-04-30T07:31:57;28.18;35.24
69009;SHT31;56065;52.472;13.380;2023-04-30T07:34:23;28.35;35.78
69009;SHT31;56065;52.472;13.380;2023-04-30T07:36:49;28.12;35.38
69009;SHT31;56065;52.472;13.380;2023-04-30T07:39:14;26.12;36.36
69009;SHT31;56065;52.472;13.380;2023-04-30T07:41:39;25.28;37.72
69009;SHT31;56065;52.472;13.380;2023-04-30T07:44:05;26.33;37.52
69009;SHT31;56065;52.472;13.380;2023-04-30T07:46:30;27.91;36.40
69009;SHT31;56065;52.472;13.380;2023-04-30T07:48:56;29.20;35.44
69009;SHT31;56065;52.472;13.380;2023-04-30T07:51:21;30.20;34.58
69009;SHT31;56065;52.472;13.380;2023-04-30T07:53:47;30.92;34.59
69009;SHT31;56065;52.472;13.380;2023-04-30T07:56:12;29.54;34.01
69009;SHT31;56065;52.472;13.380;2023-04-30T07:58:38;27.84;35.53
69009;SHT31;56065;52.472;13.380;2023-04-30T08:01:03;27.76;35.37
69009;SHT31;56065;52.472;13.380;2023-04-30T08:03:28;28.15;34.86
69009;SHT31;56065;52.472;13.380;2023-04-30T08:05:54;27.64;34.87
69009;SHT31;56065;52.472;13.380;2023-04-30T08:08:19;28.25;34.84
69009;SHT31;56065;52.472;13.380;2023-04-30T08:10:45;29.38;33.83
69009;SHT31;56065;52.472;13.380;2023-04-30T08:13:10;30.22;33.21
69009;SHT31;56065;52.472;13.380;2023-04-30T08:15:35;30.91;32.27
69009;SHT31;56065;52.472;13.380;2023-04-30T08:18:02;31.69;31.76
69009;SHT31;56065;52.472;13.380;2023-04-30T08:20:29;31.55;30.94
69009;SHT31;56065;52.472;13.380;2023-04-30T08:22:54;32.00;30.90
69009;SHT31;56065;52.472;13.380;2023-04-30T08:25:20;31.36;31.18
69009;SHT31;56065;52.472;13.380;2023-04-30T08:27:45;31.66;30.89
69009;SHT31;56065;52.472;13.380;2023-04-30T08:30:10;32.25;30.30
69009;SHT31;56065;52.472;13.380;2023-04-30T08:32:36;32.16;29.60
69009;SHT31;56065;52.472;13.380;2023-04-30T08:35:03;32.02;29.69
69009;SHT31;56065;52.472;13.380;2023-04-30T08:37:29;32.92;29.58
69009;SHT31;56065;52.472;13.380;2023-04-30T08:39:54;33.39;29.70
69009;SHT31;56065;52.472;13.380;2023-04-30T08:42:24;32.62;27.83
69009;SHT31;56065;52.472;13.380;2023-04-30T08:44:49;33.60;28.96
69009;SHT31;56065;52.472;13.380;2023-04-30T08:47:15;33.77;28.54
69009;SHT31;56065;52.472;13.380;2023-04-30T08:49:42;33.73;28.10
69009;SHT31;56065;52.472;13.380;2023-04-30T08:52:08;34.10;27.84
69009;SHT31;56065;52.472;13.380;2023-04-30T08:54:35;33.96;27.33
69009;SHT31;56065;52.472;13.380;2023-04-30T08:57:00;33.11;27.40
69009;SHT31;56065;52.472;13.380;2023-04-30T08:59:26;33.86;27.23
69009;SHT31;56065;52.472;13.380;2023-04-30T09:01:52;33.98;26.76
69009;SHT31;56065;52.472;13.380;2023-04-30T09:04:17;33.15;25.38
69009;SHT31;56065;52.472;13.380;2023-04-30T09:06:43;33.52;26.36
69009;SHT31;56065;52.472;13.380;2023-04-30T09:09:10;33.67;26.81
69009;SHT31;56065;52.472;13.380;2023-04-30T09:11:36;33.84;26.79
69009;SHT31;56065;52.472;13.380;2023-04-30T09:14:02;33.90;25.58
69009;SHT31;56065;52.472;13.380;2023-04-30T09:16:30;33.97;26.06
69009;SHT31;56065;52.472;13.380;2023-04-30T09:19:09;33.71;26.13
69009;SHT31;56065;52.472;13.380;2023-04-30T09:21:35;33.83;26.40
69009;SHT31;56065;52.472;13.380;2023-04-30T09:24:04;33.66;25.65
69009;SHT31;56065;52.472;13.380;2023-04-30T09:26:35;33.50;25.88
69009;SHT31;56065;52.472;13.380;2023-04-30T09:29:01;34.08;26.49
69009;SHT31;56065;52.472;13.380;2023-04-30T09:31:32;33.94;25.91
69009;SHT31;56065;52.472;13.380;2023-04-30T09:33:58;34.44;26.29
69009;SHT31;56065;52.472;13.380;2023-04-30T09:36:23;34.78;25.79
69009;SHT31;56065;52.472;13.380;2023-04-30T09:38:48;34.41;25.90
69009;SHT31;56065;52.472;13.380;2023-04-30T09:41:25;34.83;26.15
69009;SHT31;56065;52.472;13.380;2023-04-30T09:43:52;35.03;25.15
69009;SHT31;56065;52.472;13.380;2023-04-30T09:46:18;35.19;25.18
69009;SHT31;56065;52.472;13.380;2023-04-30T09:48:44;35.12;25.26
69009;SHT31;56065;52.472;13.380;2023-04-30T09:51:10;34.88;25.02
69009;SHT31;56065;52.472;13.380;2023-04-30T09:53:41;34.92;25.60
69009;SHT31;56065;52.472;13.380;2023-04-30T09:56:07;35.26;25.09
69009;SHT31;56065;52.472;13.380;2023-04-30T09:58:36;35.25;24.20
69009;SHT31;56065;52.472;13.380;2023-04-30T10:01:07;35.41;24.70
69009;SHT31;56065;52.472;13.380;2023-04-30T10:03:32;35.49;24.09
69009;SHT31;56065;52.472;13.380;2023-04-30T10:05:58;34.85;23.38
69009;SHT31;56065;52.472;13.380;2023-04-30T10:08:30;35.04;23.62
69009;SHT31;56065;52.472;13.380;2023-04-30T10:11:02;35.00;23.80
69009;SHT31;56065;52.472;13.380;2023-04-30T10:13:31;34.62;23.30
69009;SHT31;56065;52.472;13.380;2023-04-30T10:16:11;33.53;23.53
69009;SHT31;56065;52.472;13.380;2023-04-30T10:18:42;34.32;23.70
69009;SHT31;56065;52.472;13.380;2023-04-30T10:21:10;34.89;23.57
69009;SHT31;56065;52.472;13.380;2023-04-30T10:23:38;34.45;23.80
69009;SHT31;56065;52.472;13.380;2023-04-30T10:26:07;33.62;23.90
69009;SHT31;56065;52.472;13.380;2023-04-30T10:28:33;34.04;24.75
69009;SHT31;56065;52.472;13.380;2023-04-30T10:30:59;33.80;24.50
69009;SHT31;56065;52.472;13.380;2023-04-30T10:33:30;34.22;25.23
69009;SHT31;56065;52.472;13.380;2023-04-30T10:35:58;34.51;25.57
69009;SHT31;56065;52.472;13.380;2023-04-30T10:38:27;34.52;25.23
69009;SHT31;56065;52.472;13.380;2023-04-30T10:41:00;33.47;24.56
69009;SHT31;56065;52.472;13.380;2023-04-30T10:43:28;33.30;25.16
69009;SHT31;56065;52.472;13.380;2023-04-30T10:45:56;33.66;25.26
69009;SHT31;56065;52.472;13.380;2023-04-30T10:48:22;34.04;25.90
69009;SHT31;56065;52.472;13.380;2023-04-30T10:50:52;33.98;25.35
69009;SHT31;56065;52.472;13.380;2023-04-30T10:53:19;33.77;25.01
69009;SHT31;56065;52.472;13.380;2023-04-30T10:55:57;33.47;24.92
69009;SHT31;56065;52.472;13.380;2023-04-30T11:00:50;34.40;24.58
69009;SHT31;56065;52.472;13.380;2023-04-30T11:03:24;34.28;25.11
69009;SHT31;56065;52.472;13.380;2023-04-30T11:05:50;34.41;25.27
69009;SHT31;56065;52.472;13.380;2023-04-30T11:08:15;34.35;24.86
69009;SHT31;56065;52.472;13.380;2023-04-30T11:10:56;34.18;25.42
69009;SHT31;56065;52.472;13.380;2023-04-30T11:13:25;34.12;26.27
69009;SHT31;56065;52.472;13.380;2023-04-30T11:15:51;33.33;25.39
69009;SHT31;56065;52.472;13.380;2023-04-30T11:18:17;33.77;25.52
69009;SHT31;56065;52.472;13.380;2023-04-30T11:20:48;33.67;25.29
69009;SHT31;56065;52.472;13.380;2023-04-30T11:23:17;33.73;25.48
69009;SHT31;56065;52.472;13.380;2023-04-30T11:25:46;34.14;26.33
69009;SHT31;56065;52.472;13.380;2023-04-30T11:28:14;34.22;25.68
69009;SHT31;56065;52.472;13.380;2023-04-30T11:30:49;34.27;25.97
69009;SHT31;56065;52.472;13.380;2023-04-30T11:33:16;33.67;26.40
69009;SHT31;56065;52.472;13.380;2023-04-30T11:35:42;33.98;25.99
69009;SHT31;56065;52.472;13.380;2023-04-30T11:38:08;33.86;25.52
69009;SHT31;56065;52.472;13.380;2023-04-30T11:40:36;33.49;25.51
69009;SHT31;56065;52.472;13.380;2023-04-30T11:43:02;33.60;25.94
69009;SHT31;56065;52.472;13.380;2023-04-30T11:45:28;33.74;25.56
69009;SHT31;56065;52.472;13.380;2023-04-30T11:47:55;33.81;26.84
69009;SHT31;56065;52.472;13.380;2023-04-30T11:50:23;33.74;25.80
69009;SHT31;56065;52.472;13.380;2023-04-30T11:52:54;33.94;25.50
69009;SHT31;56065;52.472;13.380;2023-04-30T11:55:22;33.91;26.35
69009;SHT31;56065;52.472;13.380;2023-04-30T11:57:49;33.89;26.92
69009;SHT31;56065;52.472;13.380;2023-04-30T12:00:17;34.18;26.02
69009;SHT31;56065;52.472;13.380;2023-04-30T12:02:45;33.77;25.41
69009;SHT31;56065;52.472;13.380;2023-04-30T12:05:19;33.84;25.83
69009;SHT31;56065;52.472;13.380;2023-04-30T12:10:19;32.91;26.57
69009;SHT31;56065;52.472;13.380;2023-04-30T12:12:47;33.03;26.26
69009;SHT31;56065;52.472;13.380;2023-04-30T12:15:15;33.40;26.39
69009;SHT31;56065;52.472;13.380;2023-04-30T12:17:41;33.43;25.93
69009;SHT31;56065;52.472;13.380;2023-04-30T12:20:08;33.42;26.81
69009;SHT31;56065;52.472;13.380;2023-04-30T12:22:34;33.49;26.43
69009;SHT31;56065;52.472;13.380;2023-04-30T12:25:05;33.76;26.16
69009;SHT31;56065;52.472;13.380;2023-04-30T12:27:32;33.89;26.10
69009;SHT31;56065;52.472;13.380;2023-04-30T12:30:04;33.73;25.12
69009;SHT31;56065;52.472;13.380;2023-04-30T12:32:36;33.66;24.68
69009;SHT31;56065;52.472;13.380;2023-04-30T12:35:02;33.21;25.34
69009;SHT31;56065;52.472;13.380;2023-04-30T12:37:29;33.13;25.77
69009;SHT31;56065;52.472;13.380;2023-04-30T12:39:54;33.32;26.35
69009;SHT31;56065;52.472;13.380;2023-04-30T12:42:20;33.18;26.01
69009;SHT31;56065;52.472;13.380;2023-04-30T12:44:45;33.16;26.05
69009;SHT31;56065;52.472;13.380;2023-04-30T12:47:11;33.13;25.88
69009;SHT31;56065;52.472;13.380;2023-04-30T12:49:38;32.88;26.37
69009;SHT31;56065;52.472;13.380;2023-04-30T12:52:07;32.82;26.33
69009;SHT31;56065;52.472;13.380;2023-04-30T12:54:35;32.62;27.24
69009;SHT31;56065;52.472;13.380;2023-04-30T12:57:01;32.89;26.70
69009;SHT31;56065;52.472;13.380;2023-04-30T12:59:32;32.95;25.61
69009;SHT31;56065;52.472;13.380;2023-04-30T13:02:12;32.74;25.85
69009;SHT31;56065;52.472;13.380;2023-04-30T13:04:38;32.57;25.69
69009;SHT31;56065;52.472;13.380;2023-04-30T13:07:04;32.57;25.42
69009;SHT31;56065;52.472;13.380;2023-04-30T13:09:31;32.30;25.96
69009;SHT31;56065;52.472;13.380;2023-04-30T13:11:57;32.40;26.28
69009;SHT31;56065;52.472;13.380;2023-04-30T13:14:22;32.53;25.84
69009;SHT31;56065;52.472;13.380;2023-04-30T13:16:48;32.68;26.47
69009;SHT31;56065;52.472;13.380;2023-04-30T13:19:13;32.65;25.17
69009;SHT31;56065;52.472;13.380;2023-04-30T13:21:39;32.21;25.70
69009;SHT31;56065;52.472;13.380;2023-04-30T13:24:05;32.12;26.01
69009;SHT31;56065;52.472;13.380;2023-04-30T13:26:30;31.83;25.50
69009;SHT31;56065;52.472;13.380;2023-04-30T13:28:56;31.82;25.74
69009;SHT31;56065;52.472;13.380;2023-04-30T13:31:21;31.67;25.82
69009;SHT31;56065;52.472;13.380;2023-04-30T13:33:47;31.58;25.66
69009;SHT31;56065;52.472;13.380;2023-04-30T13:36:12;31.58;26.69
69009;SHT31;56065;52.472;13.380;2023-04-30T13:38:38;31.76;26.37
69009;SHT31;56065;52.472;13.380;2023-04-30T13:41:04;31.86;26.13
69009;SHT31;56065;52.472;13.380;2023-04-30T13:43:29;31.94;26.51
69009;SHT31;56065;52.472;13.380;2023-04-30T13:45:55;31.90;26.85
69009;SHT31;56065;52.472;13.380;2023-04-30T13:48:22;31.63;26.44
69009;SHT31;56065;52.472;13.380;2023-04-30T13:50:47;31.26;26.46
69009;SHT31;56065;52.472;13.380;2023-04-30T13:53:13;31.21;26.81
69009;SHT31;56065;52.472;13.380;2023-04-30T13:55:39;30.92;26.20
69009;SHT31;56065;52.472;13.380;2023-04-30T13:58:04;30.74;27.05
69009;SHT31;56065;52.472;13.380;2023-04-30T14:00:30;30.71;26.79
69009;SHT31;56065;52.472;13.380;2023-04-30T14:02:55;30.65;27.21
69009;SHT31;56065;52.472;13.380;2023-04-30T14:05:20;30.65;27.66
69009;SHT31;56065;52.472;13.380;2023-04-30T14:07:46;30.61;27.27
69009;SHT31;56065;52.472;13.380;2023-04-30T14:10:11;30.41;27.83
69009;SHT31;56065;52.472;13.380;2023-04-30T14:12:37;30.27;27.94
69009;SHT31;56065;52.472;13.380;2023-04-30T14:15:03;30.09;28.59
69009;SHT31;56065;52.472;13.380;2023-04-30T14:17:29;30.29;28.91
69009;SHT31;56065;52.472;13.380;2023-04-30T14:19:55;30.15;28.09
69009;SHT31;56065;52.472;13.380;2023-04-30T14:22:21;30.08;28.78
69009;SHT31;56065;52.472;13.380;2023-04-30T14:24:46;30.05;28.35
69009;SHT31;56065;52.472;13.380;2023-04-30T14:27:12;30.08;28.05
69009;SHT31;56065;52.472;13.380;2023-04-30T14:29:37;29.39;28.14
69009;SHT31;56065;52.472;13.380;2023-04-30T14:32:04;29.25;29.02
69009;SHT31;56065;52.472;13.380;2023-04-30T14:34:30;29.18;28.99
69009;SHT31;56065;52.472;13.380;2023-04-30T14:36:56;29.07;28.49
69009;SHT31;56065;52.472;13.380;2023-04-30T14:39:24;28.62;28.72
69009;SHT31;56065;52.472;13.380;2023-04-30T14:41:49;28.57;28.96
69009;SHT31;56065;52.472;13.380;2023-04-30T14:44:15;28.60;29.05
69009;SHT31;56065;52.472;13.380;2023-04-30T14:46:40;28.66;30.07
69009;SHT31;56065;52.472;13.380;2023-04-30T14:49:06;28.55;30.34
69009;SHT31;56065;52.472;13.380;2023-04-30T14:51:32;28.48;30.08
69009;SHT31;56065;52.472;13.380;2023-04-30T14:53:57;28.63;29.92
69009;SHT31;56065;52.472;13.380;2023-04-30T14:56:23;28.31;30.28
69009;SHT31;56065;52.472;13.380;2023-04-30T14:58:49;27.83;29.77
69009;SHT31;56065;52.472;13.380;2023-04-30T15:01:16;27.66;30.10
69009;SHT31;56065;52.472;13.380;2023-04-30T15:03:41;27.51;30.49
69009;SHT31;56065;52.472;13.380;2023-04-30T15:06:06;27.30;30.20
69009;SHT31;56065;52.472;13.380;2023-04-30T15:08:32;26.99;30.38
69009;SHT31;56065;52.472;13.380;2023-04-30T15:10:58;26.99;30.84
69009;SHT31;56065;52.472;13.380;2023-04-30T15:13:23;26.82;30.60
69009;SHT31;56065;52.472;13.380;2023-04-30T15:15:48;26.71;31.79
69009;SHT31;56065;52.472;13.380;2023-04-30T15:18:14;26.52;30.79
69009;SHT31;56065;52.472;13.380;2023-04-30T15:20:40;26.43;31.62
69009;SHT31;56065;52.472;13.380;2023-04-30T15:23:05;26.44;31.60
69009;SHT31;56065;52.472;13.380;2023-04-30T15:25:30;26.13;30.81
69009;SHT31;56065;52.472;13.380;2023-04-30T15:27:57;25.61;31.16
69009;SHT31;56065;52.472;13.380;2023-04-30T15:30:23;25.46;31.65
69009;SHT31;56065;52.472;13.380;2023-04-30T15:32:48;24.88;32.28